Time;durP1;ratioP1;P1;durP2;ratioP2;P2;SDS_P1;SDS_P2;PMS_P1;PMS_P2;Temp;Humidity;BMP_temperature;BMP_pressure;BME280_temperature;BME280_humidity;BME280_pressure;Samples;Min_cycle;Max_cycle;Signal;HPM_P1;HPM_P2
2021/03/15 00:00:50;;;;;;;11.55;6.42;;;;;;;5.30;63.61;97472.17;1805825;79;20909;-77
2021/03/15 00:03:20;;;;;;;8.85;7.10;;;;;;;5.29;63.58;97477.11;1805689;79;20913;-77
2021/03/15 00:05:49;;;;;;;9.15;7.05;;;;;;;5.25;63.62;97482.27;1804500;79;22691;-78
2021/03/15 00:08:16;;;;;;;7.60;6.53;;;;;;;5.23;63.67;97484.14;1805735;79;20964;-78
2021/03/15 00:10:47;;;;;;;7.87;5.90;;;;;;;5.21;63.40;97493.56;1805747;79;20964;-76
2021/03/15 00:13:15;;;;;;;8.00;5.70;;;;;;;5.18;63.36;97492.91;1805757;79;20925;-77
2021/03/15 00:15:46;;;;;;;8.08;5.90;;;;;;;5.16;63.31;97499.65;1805747;79;20972;-77
2021/03/15 00:18:13;;;;;;;8.93;6.65;;;;;;;5.13;63.44;97495.00;1805762;79;21795;-78
2021/03/15 00:20:42;;;;;;;6.85;6.25;;;;;;;5.09;63.42;97499.63;1805625;79;21040;-76
2021/03/15 00:23:13;;;;;;;10.32;6.30;;;;;;;5.07;63.37;97504.20;1805768;79;20929;-77
2021/03/15 00:25:43;;;;;;;7.33;6.47;;;;;;;5.05;63.51;97513.61;1805680;79;20972;-78
2021/03/15 00:28:13;;;;;;;7.03;5.62;;;;;;;5.04;63.65;97517.22;1805825;79;20996;-76
2021/03/15 00:30:40;;;;;;;6.70;5.50;;;;;;;5.01;63.64;97509.91;1805841;79;21367;-78
2021/03/15 00:33:08;;;;;;;7.12;5.62;;;;;;;5.00;63.69;97518.37;1806815;79;20940;-76
2021/03/15 00:35:39;;;;;;;7.95;5.65;;;;;;;4.98;63.56;97521.61;1806879;79;20878;-75
2021/03/15 00:38:06;;;;;;;7.33;5.90;;;;;;;4.95;63.73;97521.80;1805804;78;20937;-76
2021/03/15 00:40:35;;;;;;;7.67;6.83;;;;;;;4.93;63.78;97524.16;1806937;79;21397;-76
2021/03/15 00:43:03;;;;;;;9.20;6.80;;;;;;;4.92;63.98;97527.30;1806939;79;21806;-76
2021/03/15 00:45:31;;;;;;;10.23;8.13;;;;;;;4.92;64.14;97527.75;1805766;79;21060;-76
2021/03/15 00:47:59;;;;;;;13.93;10.03;;;;;;;4.92;64.04;97531.75;1807055;79;20913;-76
2021/03/15 00:50:41;;;;;;;12.13;9.55;;;;;;;4.90;63.98;97525.19;1806850;79;20885;-76
2021/03/15 00:53:17;;;;;;;11.45;9.48;;;;;;;4.89;64.04;97528.33;1805735;79;20913;-78
2021/03/15 00:55:45;;;;;;;10.05;9.05;;;;;;;4.90;64.00;97523.85;1805737;79;21874;-77
2021/03/15 00:58:13;;;;;;;10.98;9.35;;;;;;;4.91;63.93;97523.40;1805701;78;21008;-78
2021/03/15 01:00:44;;;;;;;10.23;8.20;;;;;;;4.89;63.95;97524.83;1805743;79;21350;-76
2021/03/15 01:03:17;;;;;;;9.63;8.48;;;;;;;4.87;63.99;97520.05;1784866;78;20967;-78
2021/03/15 01:05:49;;;;;;;9.83;8.10;;;;;;;4.85;63.90;97520.62;1825413;78;20955;-78
2021/03/15 01:08:38;;;;;;;10.93;8.23;;;;;;;4.85;63.94;97527.27;1825476;78;21185;-76
2021/03/15 01:11:09;;;;;;;9.55;8.48;;;;;;;4.83;64.12;97521.20;1825137;78;21380;-76
2021/03/15 01:13:38;;;;;;;9.93;8.78;;;;;;;4.84;64.21;97530.87;1825649;78;20880;-76
2021/03/15 01:16:07;;;;;;;10.15;8.48;;;;;;;4.81;64.24;97525.73;1793509;78;20936;-76
2021/03/15 01:18:35;;;;;;;12.90;9.35;;;;;;;4.80;64.28;97518.72;1825649;78;20963;-76
2021/03/15 01:21:06;;;;;;;10.80;9.58;;;;;;;4.76;64.40;97523.37;1825420;78;21355;-75
2021/03/15 01:23:35;;;;;;;10.63;8.50;;;;;;;4.74;64.61;97515.94;1825451;78;21015;-76
2021/03/15 01:26:03;;;;;;;9.75;8.23;;;;;;;4.75;64.79;97522.98;1825503;78;20963;-75
2021/03/15 01:28:31;;;;;;;10.25;8.63;;;;;;;4.75;65.15;97515.48;1825467;78;20900;-76
2021/03/15 01:30:59;;;;;;;10.55;9.35;;;;;;;4.74;65.32;97515.94;1825555;78;20907;-76
2021/03/15 01:33:27;;;;;;;10.45;8.13;;;;;;;4.73;65.55;97513.38;1825604;78;22738;-76
2021/03/15 01:36:01;;;;;;;10.28;7.87;;;;;;;4.74;65.80;97517.75;1825472;78;20896;-76
2021/03/15 01:38:28;;;;;;;9.78;8.03;;;;;;;4.71;65.98;97516.13;1825532;78;20876;-76
2021/03/15 01:40:55;;;;;;;10.38;7.15;;;;;;;4.67;66.14;97511.47;1825402;78;20952;-76
2021/03/15 01:43:27;;;;;;;8.75;7.85;;;;;;;4.64;66.20;97500.16;1825531;78;20983;-76
2021/03/15 01:45:54;;;;;;;9.40;8.50;;;;;;;4.60;66.20;97496.81;1825535;78;21357;-76
2021/03/15 01:48:24;;;;;;;9.13;7.72;;;;;;;4.57;66.30;97495.66;1825496;78;20920;-76
2021/03/15 01:50:53;;;;;;;9.13;7.20;;;;;;;4.56;66.33;97491.31;1825387;78;21035;-76
2021/03/15 01:53:21;;;;;;;9.38;8.03;;;;;;;4.55;66.50;97489.59;1793681;78;20908;-76
2021/03/15 01:55:48;;;;;;;10.05;8.03;;;;;;;4.53;66.53;97493.67;1825567;78;20896;-77
2021/03/15 01:58:18;;;;;;;8.48;7.30;;;;;;;4.52;66.60;97490.65;1794095;78;21853;-76
2021/03/15 02:00:46;;;;;;;10.23;8.28;;;;;;;4.50;66.62;97486.35;1794284;78;20991;-76
2021/03/15 02:03:16;;;;;;;11.83;8.55;;;;;;;4.48;66.57;97482.94;1818728;78;20984;-76
2021/03/15 02:05:45;;;;;;;9.53;8.53;;;;;;;4.47;66.59;97483.88;1805589;79;20972;-76
2021/03/15 02:08:15;;;;;;;10.53;8.48;;;;;;;4.46;66.70;97482.16;1805775;79;20940;-76
2021/03/15 02:10:44;;;;;;;11.10;8.53;;;;;;;4.44;66.65;97486.72;1805674;79;20991;-75
2021/03/15 02:13:58;;;;;;;8.43;7.62;;;;;;;4.41;66.58;97476.26;1805739;79;21450;-75
2021/03/15 02:16:38;;;;;;;10.72;8.00;;;;;;;4.40;66.62;97481.19;1805667;79;20996;-76
2021/03/15 02:19:53;;;;;;;9.03;8.13;;;;;;;4.37;66.74;97480.03;1804300;79;21454;-76
2021/03/15 02:22:57;;;;;;;9.33;7.25;;;;;;;4.35;66.75;97480.13;1804998;79;21027;-75
2021/03/15 02:26:21;;;;;;;12.53;9.00;;;;;;;4.30;66.93;97475.11;1805536;79;20908;-77
2021/03/15 02:29:33;;;;;;;11.90;9.00;;;;;;;4.28;67.07;97480.97;1805597;79;21378;-77
2021/03/15 02:32:41;;;;;;;9.88;7.60;;;;;;;4.26;67.13;97486.85;1805690;79;21007;-77
2021/03/15 02:35:18;;;;;;;10.15;8.53;;;;;;;4.25;67.17;97494.44;1805603;79;20893;-75
2021/03/15 02:38:09;;;;;;;8.60;7.72;;;;;;;4.22;67.17;97487.97;1805690;79;20905;-76
2021/03/15 02:40:47;;;;;;;9.88;8.88;;;;;;;4.21;67.27;97491.59;1779786;79;21358;-75
2021/03/15 02:43:35;;;;;;;8.43;7.45;;;;;;;4.20;67.32;97495.19;1805840;79;21370;-76
2021/03/15 02:46:06;;;;;;;9.75;8.30;;;;;;;4.18;67.40;97493.09;1797865;79;20999;-75
2021/03/15 02:48:35;;;;;;;8.00;6.97;;;;;;;4.18;67.57;97486.45;1805819;79;20969;-76
2021/03/15 02:51:05;;;;;;;9.15;7.10;;;;;;;4.19;67.69;97488.14;1805837;79;21279;-76
2021/03/15 02:53:33;;;;;;;8.53;6.67;;;;;;;4.19;67.60;97481.98;1805838;79;21360;-76
2021/03/15 02:56:13;;;;;;;15.50;7.78;;;;;;;4.18;67.61;97487.78;1805763;79;21011;-76
2021/03/15 02:58:41;;;;;;;10.28;7.45;;;;;;;4.19;67.72;97489.95;1805882;79;20945;-76
2021/03/15 03:01:09;;;;;;;9.60;7.53;;;;;;;4.18;67.84;97489.11;1805748;79;21496;-76
2021/03/15 03:03:36;;;;;;;9.25;8.33;;;;;;;4.16;67.97;97483.00;1808803;78;20956;-76
2021/03/15 03:06:05;;;;;;;9.53;8.53;;;;;;;4.15;67.84;97489.28;1814699;79;21140;-76
2021/03/15 03:08:33;;;;;;;9.63;8.48;;;;;;;4.14;67.86;97484.91;1814945;78;21038;-76
2021/03/15 03:11:02;;;;;;;9.40;8.35;;;;;;;4.13;67.88;97483.18;1753828;79;20924;-76
2021/03/15 03:13:31;;;;;;;11.95;8.33;;;;;;;4.12;67.94;97486.32;1814907;79;21349;-76
2021/03/15 03:15:59;;;;;;;15.23;9.15;;;;;;;4.10;68.04;97485.56;1729997;79;21363;-75
2021/03/15 03:18:28;;;;;;;9.35;8.23;;;;;;;4.11;68.33;97481.94;1814926;79;21188;-75
2021/03/15 03:20:58;;;;;;;8.75;7.53;;;;;;;4.11;68.41;97476.63;1814899;79;20964;-75
2021/03/15 03:23:33;;;;;;;10.18;8.50;;;;;;;4.12;68.26;97476.17;1815162;79;20920;-75
2021/03/15 03:26:00;;;;;;;9.43;7.83;;;;;;;4.12;68.14;97480.16;1814928;79;20888;-75
2021/03/15 03:28:29;;;;;;;9.35;7.35;;;;;;;4.10;68.13;97478.04;1814944;78;20896;-76
2021/03/15 03:31:01;;;;;;;8.95;7.47;;;;;;;4.09;68.20;97475.02;1814932;79;23461;-75
2021/03/15 03:33:29;;;;;;;7.67;6.85;;;;;;;4.08;68.12;97474.14;1814889;79;20932;-77
2021/03/15 03:35:57;;;;;;;8.98;7.47;;;;;;;4.08;68.22;97477.28;1815714;79;20928;-75
2021/03/15 03:38:26;;;;;;;8.68;7.55;;;;;;;4.05;68.06;97474.80;1813215;79;21003;-75
2021/03/15 03:40:57;;;;;;;8.35;7.42;;;;;;;4.03;68.13;97470.06;1815220;79;20983;-75
2021/03/15 03:43:25;;;;;;;8.63;6.92;;;;;;;4.01;68.16;97465.31;1815664;79;21189;-75
2021/03/15 03:45:53;;;;;;;9.00;7.62;;;;;;;3.98;68.22;97471.17;1816134;79;20983;-75
2021/03/15 03:48:24;;;;;;;8.98;8.08;;;;;;;3.99;68.28;97473.38;1784537;79;21330;-76
2021/03/15 03:50:52;;;;;;;9.33;8.23;;;;;;;3.98;68.33;97471.65;1815561;79;20904;-77
2021/03/15 03:53:40;;;;;;;9.53;8.40;;;;;;;3.98;68.34;97471.65;1816025;79;20916;-76
2021/03/15 03:56:19;;;;;;;9.63;8.40;;;;;;;3.98;68.46;97472.98;1814950;79;21366;-75
2021/03/15 03:58:49;;;;;;;10.90;8.80;;;;;;;3.97;68.51;97473.46;1815015;79;21417;-76
2021/03/15 04:01:17;;;;;;;9.43;8.43;;;;;;;3.98;68.53;97474.31;1813118;79;21414;-77
2021/03/15 04:03:48;;;;;;;10.68;8.88;;;;;;;3.98;68.59;97467.66;1780629;79;21628;-76
2021/03/15 04:06:16;;;;;;;10.60;9.33;;;;;;;3.99;68.55;97465.41;1748519;79;20964;-77
2021/03/15 04:08:57;;;;;;;8.93;8.03;;;;;;;3.97;68.48;97468.14;1800420;79;22421;-76
2021/03/15 04:11:27;;;;;;;9.30;8.38;;;;;;;3.98;68.58;97475.16;1803772;79;20996;-76
2021/03/15 04:13:57;;;;;;;11.22;8.18;;;;;;;3.97;68.64;97473.46;1803918;79;20988;-76
2021/03/15 04:16:34;;;;;;;12.65;7.92;;;;;;;3.98;68.66;97472.50;1803673;79;20956;-77
2021/03/15 04:19:05;;;;;;;10.58;8.00;;;;;;;4.00;68.73;97474.22;1803828;79;21426;-76
2021/03/15 04:21:33;;;;;;;8.08;7.28;;;;;;;4.01;68.79;97474.61;1803767;79;21379;-76
2021/03/15 04:24:01;;;;;;;11.05;7.65;;;;;;;4.01;68.83;97478.60;1803754;79;20930;-76
2021/03/15 04:26:31;;;;;;;11.80;7.67;;;;;;;4.01;68.88;97478.12;1773814;79;20921;-76
2021/03/15 04:28:58;;;;;;;12.98;7.90;;;;;;;4.01;68.91;97478.60;1772890;79;21514;-76
2021/03/15 04:31:26;;;;;;;9.05;7.62;;;;;;;4.03;68.88;97484.67;1773115;79;20921;-76
2021/03/15 04:33:58;;;;;;;11.12;8.68;;;;;;;4.02;68.87;97484.28;1803865;79;22234;-76
2021/03/15 04:36:25;;;;;;;11.90;8.60;;;;;;;4.00;68.85;97481.70;1803691;79;21433;-76
2021/03/15 04:38:53;;;;;;;11.40;8.23;;;;;;;3.98;68.93;97488.44;1803755;79;20878;-77
2021/03/15 04:41:21;;;;;;;12.33;8.08;;;;;;;3.96;69.06;97483.69;1803795;79;20913;-76
2021/03/15 04:43:49;;;;;;;11.73;7.78;;;;;;;3.96;69.21;97485.02;1803883;79;20917;-76
2021/03/15 04:46:17;;;;;;;11.63;8.08;;;;;;;3.97;69.36;97483.21;1803772;79;21981;-75
2021/03/15 04:48:47;;;;;;;10.68;8.83;;;;;;;3.98;69.42;97492.42;1803848;79;21366;-75
2021/03/15 04:51:18;;;;;;;9.38;8.33;;;;;;;3.97;69.41;97492.06;1803744;79;20984;-76
2021/03/15 04:53:47;;;;;;;10.32;8.20;;;;;;;3.96;69.42;97492.99;1803779;79;20980;-76
2021/03/15 04:56:16;;;;;;;11.38;8.88;;;;;;;3.94;69.39;97494.89;1803678;79;20976;-77
2021/03/15 04:58:49;;;;;;;8.83;7.72;;;;;;;3.95;69.38;97495.73;1803795;79;21188;-77
2021/03/15 05:01:17;;;;;;;10.93;8.90;;;;;;;3.92;69.47;97496.75;1803732;79;20975;-77
2021/03/15 05:03:51;;;;;;;12.68;9.58;;;;;;;3.91;69.59;97495.52;1805014;78;20968;-75
2021/03/15 05:06:22;;;;;;;11.50;8.93;;;;;;;3.89;69.69;97490.77;1814816;79;20939;-77
2021/03/15 05:08:50;;;;;;;12.58;9.10;;;;;;;3.88;69.85;97491.25;1814933;79;20865;-78
2021/03/15 05:11:18;;;;;;;10.23;8.88;;;;;;;3.87;70.01;97490.86;1814854;79;21180;-77
2021/03/15 05:13:47;;;;;;;11.18;9.63;;;;;;;3.86;70.18;97491.79;1814776;79;20991;-76
2021/03/15 05:16:14;;;;;;;11.08;9.20;;;;;;;3.84;70.15;97493.69;1814911;79;20967;-76
2021/03/15 05:18:43;;;;;;;10.90;9.10;;;;;;;3.84;70.26;97502.98;1814839;79;21023;-76
2021/03/15 05:21:13;;;;;;;10.23;9.23;;;;;;;3.84;70.37;97497.67;1814956;79;20932;-77
2021/03/15 05:23:42;;;;;;;13.35;11.43;;;;;;;3.81;70.29;97493.86;1814738;79;21871;-77
2021/03/15 05:26:10;;;;;;;14.13;9.85;;;;;;;3.79;70.34;97492.61;1814711;79;20932;-77
2021/03/15 05:28:42;;;;;;;9.98;8.93;;;;;;;3.77;70.43;97495.84;1814871;79;20936;-78
2021/03/15 05:31:10;;;;;;;11.33;10.13;;;;;;;3.78;70.51;97499.34;1814791;79;20927;-77
2021/03/15 05:33:38;;;;;;;10.95;9.85;;;;;;;3.77;70.67;97498.98;1746671;80;20939;-76
2021/03/15 05:36:10;;;;;;;13.68;9.60;;;;;;;3.77;70.78;97494.99;1743785;82;21383;-77
2021/03/15 05:38:39;;;;;;;8.50;7.63;;;;;;;3.76;70.82;97498.58;1744095;82;20952;-77
2021/03/15 05:41:12;;;;;;;11.40;9.65;;;;;;;3.76;70.87;97495.92;1752218;82;20985;-78
2021/03/15 05:44:13;;;;;;;11.40;10.05;;;;;;;3.74;70.99;97492.51;1776217;80;20923;-77
2021/03/15 05:47:17;;;;;;;10.65;9.50;;;;;;;3.74;70.99;97497.82;1776212;80;20908;-77
2021/03/15 05:50:04;;;;;;;12.28;9.80;;;;;;;3.74;71.01;97492.51;1776082;80;21362;-77
2021/03/15 05:52:46;;;;;;;16.82;10.20;;;;;;;3.77;71.22;97498.50;1752384;82;20960;-77
2021/03/15 05:55:25;;;;;;;12.65;10.48;;;;;;;3.79;71.32;97495.75;1776106;80;21337;-78
2021/03/15 05:58:36;;;;;;;10.70;9.60;;;;;;;3.80;71.18;97494.82;1776138;80;21062;-79
2021/03/15 06:01:28;;;;;;;13.88;10.08;;;;;;;3.81;71.07;97501.83;1743743;82;21027;-78
2021/03/15 06:04:16;;;;;;;19.30;10.85;;;;;;;3.82;71.07;97501.37;1745771;81;21215;-78
2021/03/15 06:06:47;;;;;;;13.62;12.05;;;;;;;3.82;71.07;97502.22;1788572;80;20993;-78
2021/03/15 06:09:20;;;;;;;13.60;10.50;;;;;;;3.86;71.06;97507.73;1789725;80;21432;-77
2021/03/15 06:12:04;;;;;;;12.07;10.68;;;;;;;3.89;70.93;97504.90;1789460;80;21491;-79
2021/03/15 06:14:34;;;;;;;;;;;;;;;3.93;70.78;97505.12;1791985;80;21451;-79
2021/03/15 06:17:01;;;;;;;13.62;9.43;;;;;;;3.95;70.67;97507.20;1789630;80;21205;-77
2021/03/15 06:19:29;;;;;;;10.98;9.48;;;;;;;3.94;70.71;97509.50;1789437;80;21340;-77
2021/03/15 06:21:59;;;;;;;11.90;10.65;;;;;;;3.94;70.58;97515.27;1758382;81;21121;-77
2021/03/15 06:24:27;;;;;;;16.77;10.80;;;;;;;3.93;70.74;97506.45;1789505;80;21007;-77
2021/03/15 06:26:56;;;;;;;12.90;11.08;;;;;;;3.91;70.82;97504.81;1789539;80;20974;-77
2021/03/15 06:29:27;;;;;;;15.78;11.25;;;;;;;3.90;70.55;97513.75;1759515;80;21810;-80
2021/03/15 06:31:54;;;;;;;14.93;9.80;;;;;;;3.86;70.70;97518.35;1789868;80;20957;-76
2021/03/15 06:34:27;;;;;;;14.93;11.10;;;;;;;3.87;70.66;97516.58;1791607;80;20970;-76
2021/03/15 06:36:56;;;;;;;10.35;9.35;;;;;;;3.86;70.68;97510.87;1791434;80;20966;-76
2021/03/15 06:39:25;;;;;;;17.35;11.00;;;;;;;3.85;70.79;97513.12;1759057;81;20935;-73
2021/03/15 06:41:56;;;;;;;12.82;10.48;;;;;;;3.87;70.95;97513.92;1791591;80;22371;-71
2021/03/15 06:44:29;;;;;;;23.65;11.63;;;;;;;3.89;70.94;97517.34;1791791;80;20954;-72
2021/03/15 06:46:57;;;;;;;15.50;11.15;;;;;;;3.91;70.92;97514.11;1791182;80;21016;-71
2021/03/15 06:49:24;;;;;;;22.40;11.93;;;;;;;3.91;70.69;97514.98;1789514;80;20965;-72
2021/03/15 06:52:08;;;;;;;15.05;9.80;;;;;;;3.95;70.67;97516.52;1789585;80;20994;-72
2021/03/15 06:54:36;;;;;;;14.63;10.43;;;;;;;3.97;70.62;97521.29;1789513;80;21807;-73
2021/03/15 06:57:20;;;;;;;15.75;11.53;;;;;;;3.97;70.31;97518.63;1789542;80;20990;-74
2021/03/15 06:59:56;;;;;;;14.70;10.23;;;;;;;3.96;70.33;97519.56;1789445;80;20987;-73
2021/03/15 07:02:29;;;;;;;13.55;10.72;;;;;;;3.95;70.23;97520.98;1789414;80;21006;-72
2021/03/15 07:05:14;;;;;;;11.90;10.75;;;;;;;3.92;70.48;97524.66;1782353;80;21074;-73
2021/03/15 07:07:53;;;;;;;22.37;13.15;;;;;;;3.89;70.42;97520.84;1747074;81;21168;-72
2021/03/15 07:10:26;;;;;;;12.98;10.95;;;;;;;3.88;70.28;97526.23;1746526;81;20896;-72
2021/03/15 07:13:17;;;;;;;13.32;11.90;;;;;;;3.85;70.28;97525.96;1769844;81;20944;-71
2021/03/15 07:15:46;;;;;;;12.85;11.20;;;;;;;3.86;70.55;97529.46;1769372;81;21060;-72
2021/03/15 07:18:32;;;;;;;13.45;11.45;;;;;;;3.84;70.49;97517.59;1769872;81;20972;-73
2021/03/15 07:21:04;;;;;;;18.98;11.48;;;;;;;3.84;70.63;97524.72;1770085;81;22060;-67
2021/03/15 07:23:54;;;;;;;14.05;12.18;;;;;;;3.82;70.66;97519.48;1769777;81;20906;-70
2021/03/15 07:26:27;;;;;;;12.50;10.75;;;;;;;3.84;70.59;97518.92;1769733;81;20928;-70
2021/03/15 07:28:58;;;;;;;13.72;11.43;;;;;;;3.84;70.78;97520.25;1769931;81;21003;-69
2021/03/15 07:31:30;;;;;;;14.55;13.13;;;;;;;3.85;70.90;97517.98;1769928;81;20944;-67
2021/03/15 07:34:04;;;;;;;13.10;11.80;;;;;;;3.89;71.17;97515.53;1770163;81;22156;-70
2021/03/15 07:36:36;;;;;;;12.53;11.15;;;;;;;3.90;70.97;97519.91;1745780;81;20971;-69
2021/03/15 07:39:09;;;;;;;12.65;10.85;;;;;;;3.91;71.22;97516.31;1768892;81;21017;-69
2021/03/15 07:41:40;;;;;;;;;;;;;;;3.91;71.26;97521.63;1771637;81;22068;-70
2021/03/15 07:44:28;;;;;;;13.38;11.78;;;;;;;3.90;71.76;97524.37;1759896;81;20153;-70
2021/03/15 07:46:59;;;;;;;14.33;11.53;;;;;;;3.90;71.61;97524.37;1748611;82;22106;-69
2021/03/15 07:49:35;;;;;;;30.25;23.67;;;;;;;3.85;71.93;97521.97;1748663;81;21469;-70
2021/03/15 07:52:08;;;;;;;30.45;22.10;;;;;;;3.86;72.13;97525.48;1748636;82;20893;-67
2021/03/15 07:54:40;;;;;;;15.70;13.25;;;;;;;3.84;72.62;97516.27;1748649;81;20940;-67
2021/03/15 07:57:25;;;;;;;14.60;13.15;;;;;;;3.84;72.78;97520.25;1748526;82;21377;-72
2021/03/15 07:59:57;;;;;;;15.80;13.78;;;;;;;3.81;72.50;97517.77;1748535;82;21363;-71
2021/03/15 08:02:31;;;;;;;17.37;13.98;;;;;;;3.86;72.76;97520.16;1748696;82;21338;-70
2021/03/15 08:05:04;;;;;;;16.32;13.78;;;;;;;3.86;72.65;97521.01;1746258;81;21701;-70
2021/03/15 08:07:33;;;;;;;13.95;12.63;;;;;;;3.90;72.71;97519.91;1741928;81;21303;-77
2021/03/15 08:10:05;;;;;;;15.75;13.20;;;;;;;3.95;72.80;97523.63;1741480;82;21515;-69
2021/03/15 08:12:35;;;;;;;18.52;13.05;;;;;;;3.98;72.58;97518.99;1741919;82;21415;-68
2021/03/15 08:15:09;;;;;;;13.32;10.95;;;;;;;4.00;72.36;97514.08;1741892;82;21584;-69
2021/03/15 08:17:46;;;;;;;13.95;11.97;;;;;;;4.03;71.94;97514.75;1741966;82;21450;-68
2021/03/15 08:20:17;;;;;;;13.48;12.18;;;;;;;4.05;71.93;97521.30;1713462;82;21019;-66
2021/03/15 08:22:48;;;;;;;14.63;10.50;;;;;;;4.05;72.24;97523.96;1741910;82;21015;-69
2021/03/15 08:25:19;;;;;;;15.43;13.78;;;;;;;4.04;72.55;97522.27;1741981;82;22290;-69
2021/03/15 08:27:49;;;;;;;14.15;12.37;;;;;;;4.02;72.81;97521.03;1742186;82;21024;-67
2021/03/15 08:30:25;;;;;;;13.15;11.80;;;;;;;4.04;72.41;97518.28;1742251;82;20981;-67
2021/03/15 08:32:53;;;;;;;13.78;12.37;;;;;;;4.06;72.52;97524.36;1742058;82;21040;-67
2021/03/15 08:35:21;;;;;;;14.10;12.28;;;;;;;4.05;72.29;97522.63;1741895;82;20928;-67
2021/03/15 08:38:05;;;;;;;14.30;12.80;;;;;;;4.04;72.34;97523.59;1741940;82;21286;-66
2021/03/15 08:40:48;;;;;;;14.98;12.30;;;;;;;4.04;72.66;97524.93;1742057;82;21022;-68
2021/03/15 08:43:25;;;;;;;15.18;13.65;;;;;;;4.01;72.19;97523.77;1741789;82;20992;-66
2021/03/15 08:46:00;;;;;;;14.75;13.15;;;;;;;4.03;72.19;97520.06;1741900;82;20996;-68
2021/03/15 08:48:41;;;;;;;15.48;13.20;;;;;;;4.03;72.46;97519.22;1742044;81;20937;-67
2021/03/15 08:51:16;;;;;;;16.05;13.62;;;;;;;4.00;72.15;97523.37;1742004;82;22067;-68
2021/03/15 08:53:48;;;;;;;16.05;13.40;;;;;;;4.03;72.56;97516.08;1742240;82;21053;-68
2021/03/15 08:56:23;;;;;;;14.95;12.37;;;;;;;4.01;72.55;97517.13;1741854;82;21016;-67
2021/03/15 08:58:56;;;;;;;17.35;13.32;;;;;;;4.00;72.24;97511.42;1741961;82;20901;-68
2021/03/15 09:01:25;;;;;;;14.83;13.18;;;;;;;4.04;72.30;97502.34;1742025;82;21059;-68
2021/03/15 09:03:59;;;;;;;14.85;13.40;;;;;;;4.03;72.70;97500.62;1741897;82;21364;-70
2021/03/15 09:06:37;;;;;;;16.77;14.18;;;;;;;4.03;72.41;97503.27;1741908;81;21020;-70
2021/03/15 09:09:19;;;;;;;16.15;14.45;;;;;;;4.07;72.72;97504.34;1741940;82;20996;-70
2021/03/15 09:11:50;;;;;;;13.90;12.47;;;;;;;4.08;72.57;97501.20;1741509;82;20999;-69
2021/03/15 09:14:35;;;;;;;13.88;12.43;;;;;;;4.10;72.34;97497.97;1742037;81;21581;-69
2021/03/15 09:17:18;;;;;;;16.20;14.33;;;;;;;4.11;72.40;97498.37;1741989;82;22262;-68
2021/03/15 09:19:49;;;;;;;15.43;13.78;;;;;;;4.11;72.66;97497.04;1742046;82;21422;-68
2021/03/15 09:22:26;;;;;;;15.98;14.38;;;;;;;4.09;72.92;97489.64;1741944;82;20933;-68
2021/03/15 09:25:06;;;;;;;15.10;12.93;;;;;;;4.08;73.27;97489.24;1741903;82;21091;-69
2021/03/15 09:27:42;;;;;;;18.42;14.75;;;;;;;4.08;73.21;97490.57;1742078;82;21465;-69
2021/03/15 09:30:19;;;;;;;14.00;12.60;;;;;;;4.09;72.99;97486.98;1741900;82;21410;-69
2021/03/15 09:32:57;;;;;;;15.80;14.20;;;;;;;4.09;72.74;97489.64;1741974;82;20956;-69
2021/03/15 09:35:40;;;;;;;13.68;12.28;;;;;;;4.11;72.60;97485.08;1741177;82;20960;-69
2021/03/15 09:38:13;;;;;;;14.90;13.10;;;;;;;4.14;73.25;97485.75;1741917;81;21393;-68
2021/03/15 09:40:49;;;;;;;14.58;13.08;;;;;;;4.15;72.71;97486.63;1742122;82;20988;-67
2021/03/15 09:43:23;;;;;;;16.85;14.10;;;;;;;4.16;72.97;97481.23;1739104;82;21203;-68
2021/03/15 09:45:59;;;;;;;15.10;13.60;;;;;;;4.19;73.04;97482.83;1741923;82;20964;-70
2021/03/15 09:48:33;;;;;;;13.83;12.53;;;;;;;4.21;72.90;97486.27;1741942;82;20944;-70
2021/03/15 09:51:04;;;;;;;15.83;14.18;;;;;;;4.24;72.76;97486.55;1741894;81;20948;-68
2021/03/15 09:53:37;;;;;;;16.95;14.35;;;;;;;4.26;72.80;97476.22;1704429;82;20976;-68
2021/03/15 09:56:13;;;;;;;16.48;14.85;;;;;;;4.29;73.64;97477.86;1741286;82;21336;-72
2021/03/15 09:58:46;;;;;;;18.45;15.05;;;;;;;4.33;73.10;97474.89;1741621;82;21028;-71
2021/03/15 10:01:19;;;;;;;17.23;15.43;;;;;;;4.36;73.07;97470.37;1741532;82;32533;-73
2021/03/15 10:03:55;;;;;;;16.75;15.05;;;;;;;4.41;73.04;97468.28;1728086;82;21581;-73
2021/03/15 10:06:45;;;;;;;17.05;15.25;;;;;;;4.47;72.32;97470.58;1741924;80;21490;-72
2021/03/15 10:09:22;;;;;;;17.32;15.20;;;;;;;4.53;71.98;97463.08;1711890;82;20964;-72
2021/03/15 10:11:55;;;;;;;13.83;12.53;;;;;;;4.59;72.41;97464.53;1704549;82;20995;-74
2021/03/15 10:14:31;;;;;;;16.97;15.28;;;;;;;4.65;72.23;97458.84;1741830;81;20941;-74
2021/03/15 10:17:22;;;;;;;17.07;15.32;;;;;;;4.75;72.86;97460.95;1741908;81;20952;-76
2021/03/15 10:19:57;;;;;;;15.68;14.23;;;;;;;4.82;71.38;97460.45;1740327;82;21000;-70
2021/03/15 10:22:29;;;;;;;19.10;17.12;;;;;;;4.84;71.34;97460.37;1741868;82;21219;-72
2021/03/15 10:25:02;;;;;;;20.45;18.35;;;;;;;4.85;71.53;97459.42;1741805;81;20968;-71
2021/03/15 10:27:33;;;;;;;21.55;16.45;;;;;;;4.85;71.63;97458.09;1741974;81;20921;-71
2021/03/15 10:30:10;;;;;;;16.40;14.70;;;;;;;4.82;71.23;97462.27;1741728;82;21075;-72
2021/03/15 10:32:42;;;;;;;15.80;14.33;;;;;;;4.86;71.61;97451.35;1741967;82;21342;-72
2021/03/15 10:35:14;;;;;;;28.42;22.17;;;;;;;4.86;71.99;97453.16;1741950;82;21374;-72
2021/03/15 10:38:00;;;;;;;17.55;15.60;;;;;;;4.85;71.43;97452.77;1741251;82;20976;-71
2021/03/15 10:40:31;;;;;;;18.25;16.27;;;;;;;4.84;72.95;97452.38;1741276;82;20952;-71
2021/03/15 10:43:01;;;;;;;17.20;15.43;;;;;;;4.86;73.13;97454.02;1741912;82;20952;-72
2021/03/15 10:45:32;;;;;;;16.30;14.70;;;;;;;4.86;72.79;97440.70;1741864;82;20961;-70
2021/03/15 10:48:06;;;;;;;16.48;14.78;;;;;;;4.85;72.77;97442.13;1741365;82;22310;-71
2021/03/15 10:50:42;;;;;;;17.52;15.45;;;;;;;4.84;73.25;97435.09;1739979;82;20971;-71
2021/03/15 10:53:22;;;;;;;17.40;15.63;;;;;;;4.84;73.76;97428.44;1741128;82;20956;-71
2021/03/15 10:55:56;;;;;;;17.42;15.63;;;;;;;4.82;73.75;97421.03;1741676;82;21100;-71
2021/03/15 10:58:37;;;;;;;16.45;14.85;;;;;;;4.84;73.99;97425.78;1737890;82;21000;-72
2021/03/15 11:01:08;;;;;;;19.25;17.25;;;;;;;4.84;74.47;97418.67;1739188;82;21844;-71
2021/03/15 11:03:40;;;;;;;22.00;18.15;;;;;;;4.81;74.12;97416.66;1741807;82;20957;-72
2021/03/15 11:06:22;;;;;;;17.57;15.75;;;;;;;4.81;73.45;97416.20;1743357;80;20928;-72
2021/03/15 11:08:58;;;;;;;19.90;17.70;;;;;;;4.85;73.75;97411.53;1748162;82;21466;-72
2021/03/15 11:11:32;;;;;;;18.98;16.97;;;;;;;4.87;74.17;97412.28;1748677;82;21007;-71
2021/03/15 11:14:10;;;;;;;20.23;18.20;;;;;;;4.87;73.43;97412.28;1748316;82;21347;-70
2021/03/15 11:16:43;;;;;;;18.92;17.02;;;;;;;4.87;73.54;97398.53;1726338;82;20971;-70
2021/03/15 11:19:16;;;;;;;19.10;17.10;;;;;;;4.89;73.86;97405.93;1748715;82;20948;-72
2021/03/15 11:21:48;;;;;;;19.20;17.17;;;;;;;4.83;73.75;97408.13;1748615;82;21018;-72
2021/03/15 11:24:28;;;;;;;18.70;16.67;;;;;;;4.87;74.45;97405.63;1748060;82;21015;-72
2021/03/15 11:27:04;;;;;;;20.50;16.80;;;;;;;4.84;74.80;97397.84;1748518;82;21450;-71
2021/03/15 11:29:38;;;;;;;20.25;18.20;;;;;;;4.84;74.31;97399.17;1747476;82;20968;-72
2021/03/15 11:32:12;;;;;;;20.52;18.35;;;;;;;4.83;74.49;97394.82;1746546;82;21358;-72
2021/03/15 11:34:50;;;;;;;21.65;18.75;;;;;;;4.81;74.98;97392.70;1748604;81;20960;-71
2021/03/15 11:37:27;;;;;;;22.55;19.48;;;;;;;4.79;75.10;97389.30;1748715;82;20916;-73
2021/03/15 11:39:58;;;;;;;21.45;19.15;;;;;;;4.77;74.96;97383.23;1747745;82;21285;-72
2021/03/15 11:42:33;;;;;;;23.10;19.82;;;;;;;4.76;75.75;97394.81;1747776;82;20951;-70
2021/03/15 11:45:06;;;;;;;23.12;20.60;;;;;;;4.75;75.91;97379.81;1748497;82;21059;-71
2021/03/15 11:47:35;;;;;;;21.70;19.40;;;;;;;4.74;75.27;97379.42;1748612;82;21003;-70
2021/03/15 11:50:13;;;;;;;22.70;20.35;;;;;;;4.74;75.38;97372.29;1747968;82;20968;-70
2021/03/15 11:52:44;;;;;;;18.85;16.90;;;;;;;4.73;75.56;97365.28;1747440;82;21755;-72
2021/03/15 11:55:15;;;;;;;19.50;17.55;;;;;;;4.69;74.96;97368.58;1747464;82;21082;-71
2021/03/15 11:57:44;;;;;;;22.62;20.17;;;;;;;4.75;76.35;97358.53;1748679;82;20945;-72
2021/03/15 12:00:15;;;;;;;19.92;17.77;;;;;;;4.76;76.08;97358.89;1748602;82;20960;-72
2021/03/15 12:02:51;;;;;;;20.63;18.70;;;;;;;4.78;74.59;97353.02;1748853;82;21027;-73